sensor_id;sensor_type;location;lat;lon;timestamp;pressure;altitude;pressure_sealevel;temperature;humidity
63500;BME280;49654;51.142;14.924;2023-05-21T00:00:26;99496.44;;;15.41;78.66
63500;BME280;49654;51.142;14.924;2023-05-21T00:02:53;99475.88;;;15.18;78.67
63500;BME280;49654;51.142;14.924;2023-05-21T00:05:22;99502.25;;;15.23;78.83
63500;BME280;49654;51.142;14.924;2023-05-21T00:07:48;99489.13;;;15.10;79.08
63500;BME280;49654;51.142;14.924;2023-05-21T00:10:18;99491.88;;;14.95;78.97
63500;BME280;49654;51.142;14.924;2023-05-21T00:12:45;99489.44;;;14.94;79.03
63500;BME280;49654;51.142;14.924;2023-05-21T00:15:12;99490.97;;;14.75;79.88
63500;BME280;49654;51.142;14.924;2023-05-21T00:17:38;99492.56;;;14.69;80.35
63500;BME280;49654;51.142;14.924;2023-05-21T00:20:06;99490.19;;;14.74;79.90
63500;BME280;49654;51.142;14.924;2023-05-21T00:22:36;99421.34;;;14.33;79.28
63500;BME280;49654;51.142;14.924;2023-05-21T00:25:03;99438.88;;;14.39;78.83
63500;BME280;49654;51.142;14.924;2023-05-21T00:27:30;99467.84;;;14.44;79.24
63500;BME280;49654;51.142;14.924;2023-05-21T00:29:57;99470.34;;;14.52;78.34
63500;BME280;49654;51.142;14.924;2023-05-21T00:32:24;99444.28;;;14.31;78.08
63500;BME280;49654;51.142;14.924;2023-05-21T00:34:51;99467.84;;;14.44;78.04
63500;BME280;49654;51.142;14.924;2023-05-21T00:37:18;99467.38;;;14.34;77.87
63500;BME280;49654;51.142;14.924;2023-05-21T00:39:46;99482.44;;;14.32;78.24
63500;BME280;49654;51.142;14.924;2023-05-21T00:42:13;99484.63;;;14.28;77.98
63500;BME280;49654;51.142;14.924;2023-05-21T00:44:42;99481.56;;;14.18;78.36
63500;BME280;49654;51.142;14.924;2023-05-21T00:47:11;99480.19;;;14.22;78.57
63500;BME280;49654;51.142;14.924;2023-05-21T00:49:39;99449.03;;;13.92;79.34
63500;BME280;49654;51.142;14.924;2023-05-21T00:52:06;99484.09;;;14.11;79.79
63500;BME280;49654;51.142;14.924;2023-05-21T00:54:33;99453.22;;;13.93;79.64
63500;BME280;49654;51.142;14.924;2023-05-21T00:57:01;99472.38;;;14.00;80.15
63500;BME280;49654;51.142;14.924;2023-05-21T00:59:30;99467.97;;;14.01;79.82
63500;BME280;49654;51.142;14.924;2023-05-21T01:01:58;99478.44;;;14.08;78.47
63500;BME280;49654;51.142;14.924;2023-05-21T01:04:29;99476.41;;;14.03;78.14
63500;BME280;49654;51.142;14.924;2023-05-21T01:06:56;99475.00;;;14.00;78.14
63500;BME280;49654;51.142;14.924;2023-05-21T01:09:24;99476.16;;;13.98;77.63
63500;BME280;49654;51.142;14.924;2023-05-21T01:11:51;99442.19;;;13.70;77.76
63500;BME280;49654;51.142;14.924;2023-05-21T01:14:21;99473.94;;;13.95;77.02
63500;BME280;49654;51.142;14.924;2023-05-21T01:16:50;99466.84;;;13.89;77.25
63500;BME280;49654;51.142;14.924;2023-05-21T01:19:19;99453.06;;;13.73;76.86
63500;BME280;49654;51.142;14.924;2023-05-21T01:21:50;99453.59;;;13.62;77.69
63500;BME280;49654;51.142;14.924;2023-05-21T01:24:18;99440.94;;;13.44;78.51
63500;BME280;49654;51.142;14.924;2023-05-21T01:26:45;99432.38;;;13.29;79.45
63500;BME280;49654;51.142;14.924;2023-05-21T01:29:13;99434.47;;;13.40;80.13
63500;BME280;49654;51.142;14.924;2023-05-21T01:31:48;99457.69;;;13.50;80.31
63500;BME280;49654;51.142;14.924;2023-05-21T01:34:21;99450.84;;;13.49;80.03
63500;BME280;49654;51.142;14.924;2023-05-21T01:36:56;99459.03;;;13.46;80.29
63500;BME280;49654;51.142;14.924;2023-05-21T01:39:28;99454.44;;;13.48;80.68
63500;BME280;49654;51.142;14.924;2023-05-21T01:41:59;99460.91;;;13.52;80.95
63500;BME280;49654;51.142;14.924;2023-05-21T01:44:29;99388.38;;;13.04;81.97
63500;BME280;49654;51.142;14.924;2023-05-21T01:46:57;99441.47;;;13.55;81.87
63500;BME280;49654;51.142;14.924;2023-05-21T01:49:25;99455.88;;;13.50;82.26
63500;BME280;49654;51.142;14.924;2023-05-21T01:51:52;99460.72;;;13.53;82.25
63500;BME280;49654;51.142;14.924;2023-05-21T01:54:19;99457.28;;;13.53;81.93
63500;BME280;49654;51.142;14.924;2023-05-21T01:56:50;99445.81;;;13.47;81.81
63500;BME280;49654;51.142;14.924;2023-05-21T01:59:16;99457.97;;;13.62;81.40
63500;BME280;49654;51.142;14.924;2023-05-21T02:01:44;99457.78;;;13.85;82.27
63500;BME280;49654;51.142;14.924;2023-05-21T02:04:11;99438.13;;;13.89;82.71
63500;BME280;49654;51.142;14.924;2023-05-21T02:06:38;99450.09;;;13.76;83.64
63500;BME280;49654;51.142;14.924;2023-05-21T02:09:06;99446.47;;;13.56;84.18
63500;BME280;49654;51.142;14.924;2023-05-21T02:11:33;99453.94;;;13.59;85.05
63500;BME280;49654;51.142;14.924;2023-05-21T02:14:02;99449.44;;;13.53;85.95
63500;BME280;49654;51.142;14.924;2023-05-21T02:16:29;99448.28;;;13.56;85.80
63500;BME280;49654;51.142;14.924;2023-05-21T02:18:56;99451.94;;;13.61;85.37
63500;BME280;49654;51.142;14.924;2023-05-21T02:21:25;99438.41;;;13.51;85.21
63500;BME280;49654;51.142;14.924;2023-05-21T02:23:52;99452.56;;;13.42;84.57
63500;BME280;49654;51.142;14.924;2023-05-21T02:26:18;99439.28;;;13.37;84.95
63500;BME280;49654;51.142;14.924;2023-05-21T02:28:47;99438.03;;;13.33;85.04
63500;BME280;49654;51.142;14.924;2023-05-21T02:31:15;99423.13;;;13.26;84.50
63500;BME280;49654;51.142;14.924;2023-05-21T02:33:42;99442.88;;;13.36;84.12
63500;BME280;49654;51.142;14.924;2023-05-21T02:36:09;99432.03;;;13.17;83.26
63500;BME280;49654;51.142;14.924;2023-05-21T02:38:38;99428.53;;;13.25;82.51
63500;BME280;49654;51.142;14.924;2023-05-21T02:41:08;99456.28;;;13.33;82.56
63500;BME280;49654;51.142;14.924;2023-05-21T02:43:35;99447.41;;;13.12;83.25
63500;BME280;49654;51.142;14.924;2023-05-21T02:46:04;99450.28;;;13.17;83.32
63500;BME280;49654;51.142;14.924;2023-05-21T02:48:32;99448.22;;;13.27;82.38
63500;BME280;49654;51.142;14.924;2023-05-21T02:50:59;99450.88;;;13.34;81.00
63500;BME280;49654;51.142;14.924;2023-05-21T02:53:26;99444.63;;;13.28;80.91
63500;BME280;49654;51.142;14.924;2023-05-21T02:55:53;99454.41;;;13.26;81.15
63500;BME280;49654;51.142;14.924;2023-05-21T02:58:21;99432.38;;;13.14;80.75
63500;BME280;49654;51.142;14.924;2023-05-21T03:00:50;99454.81;;;13.23;80.27
63500;BME280;49654;51.142;14.924;2023-05-21T03:03:17;99433.31;;;13.07;80.03
63500;BME280;49654;51.142;14.924;2023-05-21T03:05:46;99440.75;;;13.10;80.63
63500;BME280;49654;51.142;14.924;2023-05-21T03:08:13;99409.19;;;12.83;81.20
63500;BME280;49654;51.142;14.924;2023-05-21T03:10:40;99438.00;;;13.11;80.21
63500;BME280;49654;51.142;14.924;2023-05-21T03:13:07;99441.94;;;13.07;80.14
63500;BME280;49654;51.142;14.924;2023-05-21T03:15:34;99433.59;;;12.97;80.96
63500;BME280;49654;51.142;14.924;2023-05-21T03:18:03;99445.09;;;13.02;81.16
63500;BME280;49654;51.142;14.924;2023-05-21T03:20:30;99443.91;;;13.05;80.27
63500;BME280;49654;51.142;14.924;2023-05-21T03:22:59;99442.41;;;13.11;80.19
63500;BME280;49654;51.142;14.924;2023-05-21T03:25:29;99432.03;;;13.17;79.60
63500;BME280;49654;51.142;14.924;2023-05-21T03:27:55;99438.25;;;13.16;80.06
63500;BME280;49654;51.142;14.924;2023-05-21T03:30:22;99448.59;;;13.24;80.65
63500;BME280;49654;51.142;14.924;2023-05-21T03:32:49;99398.47;;;13.14;80.56
63500;BME280;49654;51.142;14.924;2023-05-21T03:35:16;99382.44;;;13.11;80.31
63500;BME280;49654;51.142;14.924;2023-05-21T03:37:43;99435.31;;;13.62;78.69
63500;BME280;49654;51.142;14.924;2023-05-21T03:40:12;99437.72;;;13.64;78.47
63500;BME280;49654;51.142;14.924;2023-05-21T03:42:39;99440.25;;;13.57;78.96
63500;BME280;49654;51.142;14.924;2023-05-21T03:45:07;99416.53;;;13.52;79.51
63500;BME280;49654;51.142;14.924;2023-05-21T03:47:34;99436.28;;;13.61;79.99
63500;BME280;49654;51.142;14.924;2023-05-21T03:50:01;99388.97;;;13.43;80.02
63500;BME280;49654;51.142;14.924;2023-05-21T03:52:30;99438.53;;;13.64;80.36
63500;BME280;49654;51.142;14.924;2023-05-21T03:54:57;99432.81;;;13.75;80.61
63500;BME280;49654;51.142;14.924;2023-05-21T03:57:25;99440.75;;;13.89;80.51
63500;BME280;49654;51.142;14.924;2023-05-21T03:59:52;99420.47;;;13.91;80.83
63500;BME280;49654;51.142;14.924;2023-05-21T04:02:20;99438.97;;;13.96;80.89
63500;BME280;49654;51.142;14.924;2023-05-21T04:04:47;99423.94;;;13.98;80.82
63500;BME280;49654;51.142;14.924;2023-05-21T04:07:16;99363.28;;;13.68;80.89
63500;BME280;49654;51.142;14.924;2023-05-21T04:09:44;99417.44;;;14.15;80.76
63500;BME280;49654;51.142;14.924;2023-05-21T04:12:11;99439.72;;;14.46;80.15
63500;BME280;49654;51.142;14.924;2023-05-21T04:14:40;99436.78;;;14.56;79.84
63500;BME280;49654;51.142;14.924;2023-05-21T04:17:06;99439.44;;;14.62;79.74
63500;BME280;49654;51.142;14.924;2023-05-21T04:19:33;99430.22;;;14.66;78.75
63500;BME280;49654;51.142;14.924;2023-05-21T04:22:01;99436.28;;;14.73;78.97
63500;BME280;49654;51.142;14.924;2023-05-21T04:24:27;99437.56;;;14.91;78.91
63500;BME280;49654;51.142;14.924;2023-05-21T04:26:55;99420.03;;;14.85;78.68
63500;BME280;49654;51.142;14.924;2023-05-21T04:29:25;99450.88;;;15.09;78.57
63500;BME280;49654;51.142;14.924;2023-05-21T04:31:54;99403.56;;;14.91;78.66
63500;BME280;49654;51.142;14.924;2023-05-21T04:34:21;99444.69;;;15.23;78.66
63500;BME280;49654;51.142;14.924;2023-05-21T04:36:48;99440.91;;;15.39;78.39
63500;BME280;49654;51.142;14.924;2023-05-21T04:39:16;99436.69;;;15.45;78.73
63500;BME280;49654;51.142;14.924;2023-05-21T04:41:43;99434.53;;;15.68;78.89
63500;BME280;49654;51.142;14.924;2023-05-21T04:44:10;99440.97;;;15.86;79.43
63500;BME280;49654;51.142;14.924;2023-05-21T04:46:39;99438.16;;;15.94;79.85
63500;BME280;49654;51.142;14.924;2023-05-21T04:49:08;99398.06;;;15.73;80.06
63500;BME280;49654;51.142;14.924;2023-05-21T04:51:35;99430.09;;;16.02;79.96
63500;BME280;49654;51.142;14.924;2023-05-21T04:54:02;99420.00;;;15.99;80.06
63500;BME280;49654;51.142;14.924;2023-05-21T04:56:29;99419.81;;;16.07;80.63
63500;BME280;49654;51.142;14.924;2023-05-21T04:58:56;99429.25;;;16.28;80.81
63500;BME280;49654;51.142;14.924;2023-05-21T05:01:24;99421.75;;;16.38;81.07
63500;BME280;49654;51.142;14.924;2023-05-21T05:03:54;99430.56;;;16.57;80.46
63500;BME280;49654;51.142;14.924;2023-05-21T05:06:22;99420.66;;;16.66;80.12
63500;BME280;49654;51.142;14.924;2023-05-21T05:08:50;99422.44;;;16.78;79.13
63500;BME280;49654;51.142;14.924;2023-05-21T05:11:17;99427.91;;;16.84;79.78
63500;BME280;49654;51.142;14.924;2023-05-21T05:13:44;99379.16;;;16.56;79.77
63500;BME280;49654;51.142;14.924;2023-05-21T05:16:11;99380.31;;;16.73;78.86
63500;BME280;49654;51.142;14.924;2023-05-21T05:18:39;99391.75;;;16.86;78.75
63500;BME280;49654;51.142;14.924;2023-05-21T05:21:06;99416.41;;;17.16;78.86
63500;BME280;49654;51.142;14.924;2023-05-21T05:23:34;99408.69;;;17.21;78.87
63500;BME280;49654;51.142;14.924;2023-05-21T05:26:02;99424.75;;;17.38;78.85
63500;BME280;49654;51.142;14.924;2023-05-21T05:28:29;99413.03;;;17.41;78.55
63500;BME280;49654;51.142;14.924;2023-05-21T05:30:56;99417.00;;;17.50;78.33
63500;BME280;49654;51.142;14.924;2023-05-21T05:33:22;99410.91;;;17.56;78.17
63500;BME280;49654;51.142;14.924;2023-05-21T05:35:49;99422.16;;;17.63;78.08
63500;BME280;49654;51.142;14.924;2023-05-21T05:38:16;99424.13;;;17.74;77.91
63500;BME280;49654;51.142;14.924;2023-05-21T05:40:45;99421.16;;;17.89;77.24
63500;BME280;49654;51.142;14.924;2023-05-21T05:43:12;99422.16;;;17.95;77.12
63500;BME280;49654;51.142;14.924;2023-05-21T05:45:38;99419.25;;;18.03;76.99
63500;BME280;49654;51.142;14.924;2023-05-21T05:48:05;99422.16;;;18.13;76.76
63500;BME280;49654;51.142;14.924;2023-05-21T05:50:32;99429.34;;;18.24;76.39
63500;BME280;49654;51.142;14.924;2023-05-21T05:52:59;99424.00;;;18.31;75.54
63500;BME280;49654;51.142;14.924;2023-05-21T05:55:26;99423.94;;;18.38;75.89
63500;BME280;49654;51.142;14.924;2023-05-21T05:57:54;99409.19;;;18.37;76.03
63500;BME280;49654;51.142;14.924;2023-05-21T06:00:21;99419.13;;;18.53;76.08
63500;BME280;49654;51.142;14.924;2023-05-21T06:02:48;99366.97;;;18.32;75.23
63500;BME280;49654;51.142;14.924;2023-05-21T06:05:15;99407.63;;;18.66;75.30
63500;BME280;49654;51.142;14.924;2023-05-21T06:07:42;99403.28;;;18.78;75.35
63500;BME280;49654;51.142;14.924;2023-05-21T06:10:09;99408.31;;;18.80;74.99
63500;BME280;49654;51.142;14.924;2023-05-21T06:12:36;99412.38;;;18.94;74.82
63500;BME280;49654;51.142;14.924;2023-05-21T06:15:05;99414.59;;;19.09;74.00
63500;BME280;49654;51.142;14.924;2023-05-21T06:17:32;99414.66;;;19.20;74.04
63500;BME280;49654;51.142;14.924;2023-05-21T06:19:59;99326.31;;;18.83;72.50
63500;BME280;49654;51.142;14.924;2023-05-21T06:22:26;99405.63;;;19.40;72.60
63500;BME280;49654;51.142;14.924;2023-05-21T06:24:53;99424.03;;;19.58;71.10
63500;BME280;49654;51.142;14.924;2023-05-21T06:27:20;99426.34;;;19.66;71.39
63500;BME280;49654;51.142;14.924;2023-05-21T06:29:47;99421.47;;;19.51;70.27
63500;BME280;49654;51.142;14.924;2023-05-21T06:32:15;99420.28;;;19.77;70.18
63500;BME280;49654;51.142;14.924;2023-05-21T06:34:42;99423.97;;;19.88;70.46
63500;BME280;49654;51.142;14.924;2023-05-21T06:37:09;99419.38;;;19.84;69.79
63500;BME280;49654;51.142;14.924;2023-05-21T06:39:36;99405.06;;;19.91;70.08
63500;BME280;49654;51.142;14.924;2023-05-21T06:42:03;99420.41;;;20.06;69.76
63500;BME280;49654;51.142;14.924;2023-05-21T06:44:30;99419.03;;;20.15;69.36
63500;BME280;49654;51.142;14.924;2023-05-21T06:46:57;99424.75;;;20.24;69.65
63500;BME280;49654;51.142;14.924;2023-05-21T06:49:25;99428.72;;;20.38;68.78
63500;BME280;49654;51.142;14.924;2023-05-21T06:51:52;99415.56;;;20.50;67.31
63500;BME280;49654;51.142;14.924;2023-05-21T06:54:19;99433.00;;;20.51;67.81
63500;BME280;49654;51.142;14.924;2023-05-21T06:56:46;99425.88;;;20.40;67.99
63500;BME280;49654;51.142;14.924;2023-05-21T06:59:13;99413.28;;;20.30;68.46
63500;BME280;49654;51.142;14.924;2023-05-21T07:01:40;99431.81;;;20.47;67.97
63500;BME280;49654;51.142;14.924;2023-05-21T07:04:08;99433.44;;;20.60;66.93
63500;BME280;49654;51.142;14.924;2023-05-21T07:06:37;99426.88;;;20.74;66.16
63500;BME280;49654;51.142;14.924;2023-05-21T07:09:04;99433.22;;;20.61;67.36
63500;BME280;49654;51.142;14.924;2023-05-21T07:11:31;99431.13;;;20.63;67.69
63500;BME280;49654;51.142;14.924;2023-05-21T07:13:59;99428.56;;;20.80;67.80
63500;BME280;49654;51.142;14.924;2023-05-21T07:16:26;99426.25;;;20.84;67.63
63500;BME280;49654;51.142;14.924;2023-05-21T07:18:53;99427.72;;;20.91;67.25
63500;BME280;49654;51.142;14.924;2023-05-21T07:21:20;99433.22;;;21.18;67.16
63500;BME280;49654;51.142;14.924;2023-05-21T07:23:48;99424.13;;;21.26;64.72
63500;BME280;49654;51.142;14.924;2023-05-21T07:26:15;99402.00;;;20.98;66.32
63500;BME280;49654;51.142;14.924;2023-05-21T07:28:43;99429.94;;;21.11;66.72
63500;BME280;49654;51.142;14.924;2023-05-21T07:31:10;99430.38;;;21.20;66.66
63500;BME280;49654;51.142;14.924;2023-05-21T07:33:37;99416.19;;;21.26;65.97
63500;BME280;49654;51.142;14.924;2023-05-21T07:36:04;99406.41;;;21.10;65.55
63500;BME280;49654;51.142;14.924;2023-05-21T07:38:31;99425.38;;;21.23;65.81
63500;BME280;49654;51.142;14.924;2023-05-21T07:41:00;99407.22;;;21.27;65.01
63500;BME280;49654;51.142;14.924;2023-05-21T07:43:27;99418.09;;;21.42;65.13
63500;BME280;49654;51.142;14.924;2023-05-21T07:45:54;99423.53;;;21.53;65.69
63500;BME280;49654;51.142;14.924;2023-05-21T07:48:21;99420.19;;;21.74;65.26
63500;BME280;49654;51.142;14.924;2023-05-21T07:50:48;99417.78;;;21.72;64.49
63500;BME280;49654;51.142;14.924;2023-05-21T07:53:17;99417.78;;;21.72;63.53
63500;BME280;49654;51.142;14.924;2023-05-21T07:55:45;99430.09;;;21.84;64.72
63500;BME280;49654;51.142;14.924;2023-05-21T07:58:15;99402.00;;;21.78;64.90
63500;BME280;49654;51.142;14.924;2023-05-21T08:00:43;99422.16;;;22.17;64.38
63500;BME280;49654;51.142;14.924;2023-05-21T08:03:13;99422.84;;;22.30;62.97
63500;BME280;49654;51.142;14.924;2023-05-21T08:05:41;99417.19;;;22.43;63.65
63500;BME280;49654;51.142;14.924;2023-05-21T08:08:09;99424.56;;;22.85;60.76
63500;BME280;49654;51.142;14.924;2023-05-21T08:10:37;99415.03;;;23.06;60.13
63500;BME280;49654;51.142;14.924;2023-05-21T08:13:04;99428.13;;;23.17;59.94
63500;BME280;49654;51.142;14.924;2023-05-21T08:15:32;99425.28;;;23.56;58.29
63500;BME280;49654;51.142;14.924;2023-05-21T08:17:59;99426.28;;;23.77;57.31
63500;BME280;49654;51.142;14.924;2023-05-21T08:20:26;99425.78;;;23.85;55.90
63500;BME280;49654;51.142;14.924;2023-05-21T08:22:55;99379.84;;;23.74;57.46
63500;BME280;49654;51.142;14.924;2023-05-21T08:25:23;99418.81;;;24.16;56.47
63500;BME280;49654;51.142;14.924;2023-05-21T08:27:50;99415.19;;;24.33;55.92
63500;BME280;49654;51.142;14.924;2023-05-21T08:30:16;99414.56;;;24.15;54.25
63500;BME280;49654;51.142;14.924;2023-05-21T08:32:45;99415.69;;;24.30;54.67
63500;BME280;49654;51.142;14.924;2023-05-21T08:35:12;99408.19;;;24.16;55.19
63500;BME280;49654;51.142;14.924;2023-05-21T08:37:39;99410.59;;;24.18;55.88
63500;BME280;49654;51.142;14.924;2023-05-21T08:40:07;99411.38;;;24.18;54.47
63500;BME280;49654;51.142;14.924;2023-05-21T08:42:39;99406.69;;;24.36;55.15
63500;BME280;49654;51.142;14.924;2023-05-21T08:45:10;99407.72;;;24.24;56.49
63500;BME280;49654;51.142;14.924;2023-05-21T08:47:40;99412.72;;;24.16;54.85
63500;BME280;49654;51.142;14.924;2023-05-21T08:50:10;99416.34;;;23.99;54.36
63500;BME280;49654;51.142;14.924;2023-05-21T08:52:37;99419.81;;;24.05;55.00
63500;BME280;49654;51.142;14.924;2023-05-21T08:55:06;99416.56;;;24.40;57.09
63500;BME280;49654;51.142;14.924;2023-05-21T08:57:33;99409.44;;;24.51;55.54
63500;BME280;49654;51.142;14.924;2023-05-21T09:00:00;99402.56;;;24.55;55.79
63500;BME280;49654;51.142;14.924;2023-05-21T09:02:32;99414.78;;;24.61;53.90
63500;BME280;49654;51.142;14.924;2023-05-21T09:05:00;99410.59;;;24.81;54.47
63500;BME280;49654;51.142;14.924;2023-05-21T09:07:30;99394.69;;;24.91;54.25
63500;BME280;49654;51.142;14.924;2023-05-21T09:10:01;99402.72;;;25.11;54.87
63500;BME280;49654;51.142;14.924;2023-05-21T09:12:30;99415.97;;;25.06;51.98
63500;BME280;49654;51.142;14.924;2023-05-21T09:14:58;99420.22;;;25.07;54.03
63500;BME280;49654;51.142;14.924;2023-05-21T09:17:26;99408.06;;;25.42;53.65
63500;BME280;49654;51.142;14.924;2023-05-21T09:20:10;99419.75;;;25.66;52.10
63500;BME280;49654;51.142;14.924;2023-05-21T09:22:43;99421.88;;;25.90;51.27
63500;BME280;49654;51.142;14.924;2023-05-21T09:25:11;99419.75;;;25.97;51.21
63500;BME280;49654;51.142;14.924;2023-05-21T09:27:38;99419.50;;;25.83;49.89
63500;BME280;49654;51.142;14.924;2023-05-21T09:30:09;99414.16;;;25.88;50.37
63500;BME280;49654;51.142;14.924;2023-05-21T09:32:37;99409.31;;;26.16;51.75
63500;BME280;49654;51.142;14.924;2023-05-21T09:35:06;99399.34;;;26.42;51.54
63500;BME280;49654;51.142;14.924;2023-05-21T09:37:37;99409.72;;;26.54;50.91
63500;BME280;49654;51.142;14.924;2023-05-21T09:40:11;99414.19;;;26.68;51.03
63500;BME280;49654;51.142;14.924;2023-05-21T09:42:39;99409.56;;;26.84;49.77
63500;BME280;49654;51.142;14.924;2023-05-21T09:45:07;99409.25;;;26.91;50.27
63500;BME280;49654;51.142;14.924;2023-05-21T09:47:39;99399.03;;;26.59;48.80
63500;BME280;49654;51.142;14.924;2023-05-21T09:50:07;99394.75;;;26.63;47.86
63500;BME280;49654;51.142;14.924;2023-05-21T09:52:35;99408.94;;;26.53;49.49
63500;BME280;49654;51.142;14.924;2023-05-21T09:55:02;99405.75;;;26.51;49.14
63500;BME280;49654;51.142;14.924;2023-05-21T09:57:30;99405.25;;;26.93;49.21
63500;BME280;49654;51.142;14.924;2023-05-21T09:59:57;99407.69;;;27.29;48.16
63500;BME280;49654;51.142;14.924;2023-05-21T10:02:24;99396.41;;;27.71;47.48
63500;BME280;49654;51.142;14.924;2023-05-21T10:04:52;99392.06;;;28.05;46.35
63500;BME280;49654;51.142;14.924;2023-05-21T10:07:21;99395.03;;;28.27;45.82
63500;BME280;49654;51.142;14.924;2023-05-21T10:09:52;99388.09;;;28.50;44.65
63500;BME280;49654;51.142;14.924;2023-05-21T10:12:21;99374.28;;;27.95;45.07
63500;BME280;49654;51.142;14.924;2023-05-21T10:14:53;99383.28;;;28.04;45.78
63500;BME280;49654;51.142;14.924;2023-05-21T10:17:23;99376.06;;;28.05;46.07
63500;BME280;49654;51.142;14.924;2023-05-21T10:19:51;99376.19;;;28.18;46.35
63500;BME280;49654;51.142;14.924;2023-05-21T10:22:19;99353.56;;;28.11;45.70
63500;BME280;49654;51.142;14.924;2023-05-21T10:24:47;99372.22;;;28.40;45.32
63500;BME280;49654;51.142;14.924;2023-05-21T10:27:15;99376.69;;;28.63;45.47
63500;BME280;49654;51.142;14.924;2023-05-21T10:29:44;99366.94;;;28.73;45.47
63500;BME280;49654;51.142;14.924;2023-05-21T10:32:14;99383.84;;;29.06;43.91
63500;BME280;49654;51.142;14.924;2023-05-21T10:34:42;99361.75;;;29.00;44.53
63500;BME280;49654;51.142;14.924;2023-05-21T10:37:11;99379.78;;;29.27;45.17
63500;BME280;49654;51.142;14.924;2023-05-21T10:39:38;99373.41;;;29.23;43.07
63500;BME280;49654;51.142;14.924;2023-05-21T10:42:17;99357.41;;;29.37;43.16
63500;BME280;49654;51.142;14.924;2023-05-21T10:44:56;99383.75;;;29.76;42.45
63500;BME280;49654;51.142;14.924;2023-05-21T10:47:41;99366.31;;;29.79;42.22
63500;BME280;49654;51.142;14.924;2023-05-21T10:50:25;99376.66;;;29.85;42.52
63500;BME280;49654;51.142;14.924;2023-05-21T10:53:01;99377.44;;;30.00;43.79
63500;BME280;49654;51.142;14.924;2023-05-21T10:55:39;99374.94;;;29.76;42.01
63500;BME280;49654;51.142;14.924;2023-05-21T10:58:35;99373.22;;;28.82;42.60
63500;BME280;49654;51.142;14.924;2023-05-21T11:01:04;99364.94;;;29.02;45.27
63500;BME280;49654;51.142;14.924;2023-05-21T11:03:34;99364.53;;;28.90;44.01
63500;BME280;49654;51.142;14.924;2023-05-21T11:06:02;99374.78;;;29.20;43.43
63500;BME280;49654;51.142;14.924;2023-05-21T11:08:30;99376.09;;;29.23;44.03
63500;BME280;49654;51.142;14.924;2023-05-21T11:11:01;99353.75;;;29.00;44.55
63500;BME280;49654;51.142;14.924;2023-05-21T11:13:43;99374.13;;;29.29;43.98
63500;BME280;49654;51.142;14.924;2023-05-21T11:16:13;99375.63;;;29.67;42.95
63500;BME280;49654;51.142;14.924;2023-05-21T11:21:34;99382.66;;;29.31;42.51
63500;BME280;49654;51.142;14.924;2023-05-21T11:24:04;99384.34;;;28.89;44.09
63500;BME280;49654;51.142;14.924;2023-05-21T11:26:57;99389.06;;;28.78;44.70
63500;BME280;49654;51.142;14.924;2023-05-21T11:29:42;99382.97;;;28.54;48.05
63500;BME280;49654;51.142;14.924;2023-05-21T11:32:14;99385.94;;;28.28;47.56
63500;BME280;49654;51.142;14.924;2023-05-21T11:34:46;99369.78;;;27.37;46.36
63500;BME280;49654;51.142;14.924;2023-05-21T11:37:31;99390.69;;;26.76;48.37
63500;BME280;49654;51.142;14.924;2023-05-21T11:40:32;99385.91;;;26.13;46.13
63500;BME280;49654;51.142;14.924;2023-05-21T11:43:00;99377.38;;;26.21;46.71
63500;BME280;49654;51.142;14.924;2023-05-21T11:45:30;99347.59;;;26.09;48.16
63500;BME280;49654;51.142;14.924;2023-05-21T11:47:58;99329.81;;;25.89;48.65
63500;BME280;49654;51.142;14.924;2023-05-21T11:50:26;99346.88;;;25.88;48.78
63500;BME280;49654;51.142;14.924;2023-05-21T11:52:58;99352.22;;;25.57;51.36
63500;BME280;49654;51.142;14.924;2023-05-21T11:55:25;99321.91;;;25.43;49.98
63500;BME280;49654;51.142;14.924;2023-05-21T11:57:53;99299.09;;;25.11;49.45
63500;BME280;49654;51.142;14.924;2023-05-21T12:00:20;99353.31;;;25.15;51.38
63500;BME280;49654;51.142;14.924;2023-05-21T12:02:49;99353.56;;;25.19;51.83
63500;BME280;49654;51.142;14.924;2023-05-21T12:05:17;99349.28;;;25.03;50.40
63500;BME280;49654;51.142;14.924;2023-05-21T12:07:47;99366.59;;;25.10;52.36
63500;BME280;49654;51.142;14.924;2023-05-21T12:10:19;99365.97;;;24.83;53.57
63500;BME280;49654;51.142;14.924;2023-05-21T12:12:46;99359.81;;;24.62;54.92
63500;BME280;49654;51.142;14.924;2023-05-21T12:15:16;99362.56;;;24.97;53.94
63500;BME280;49654;51.142;14.924;2023-05-21T12:17:43;99335.22;;;25.12;50.69
63500;BME280;49654;51.142;14.924;2023-05-21T12:20:14;99366.56;;;25.56;49.57
63500;BME280;49654;51.142;14.924;2023-05-21T12:22:41;99360.66;;;26.05;49.37
63500;BME280;49654;51.142;14.924;2023-05-21T12:25:09;99364.91;;;27.15;46.92
63500;BME280;49654;51.142;14.924;2023-05-21T12:27:38;99369.53;;;28.78;44.22
63500;BME280;49654;51.142;14.924;2023-05-21T12:30:07;99368.69;;;29.80;41.68
63500;BME280;49654;51.142;14.924;2023-05-21T12:32:34;99363.84;;;29.68;43.17
63500;BME280;49654;51.142;14.924;2023-05-21T12:35:03;99355.59;;;29.32;40.50
63500;BME280;49654;51.142;14.924;2023-05-21T12:37:30;99325.34;;;28.48;41.88
63500;BME280;49654;51.142;14.924;2023-05-21T12:40:01;99358.78;;;28.64;42.32
63500;BME280;49654;51.142;14.924;2023-05-21T12:42:30;99334.13;;;28.29;41.50
63500;BME280;49654;51.142;14.924;2023-05-21T12:45:05;99348.13;;;27.73;39.82
63500;BME280;49654;51.142;14.924;2023-05-21T12:47:32;99364.75;;;27.60;42.26
63500;BME280;49654;51.142;14.924;2023-05-21T12:50:00;99366.25;;;26.68;45.12
63500;BME280;49654;51.142;14.924;2023-05-21T12:52:28;99337.78;;;26.59;45.28
63500;BME280;49654;51.142;14.924;2023-05-21T12:54:56;99369.84;;;26.33;45.82
63500;BME280;49654;51.142;14.924;2023-05-21T12:57:24;99361.53;;;26.55;49.10
63500;BME280;49654;51.142;14.924;2023-05-21T12:59:53;99364.34;;;26.74;48.39